createdAt,value
2017-09-30T00:02:04.949Z,15.60
2017-09-30T00:04:34.231Z,15.13
2017-09-30T00:07:04.266Z,16.92
2017-09-30T00:09:33.525Z,16.00
2017-09-30T00:12:03.833Z,16.42
2017-09-30T00:14:33.101Z,14.98
2017-09-30T00:17:02.370Z,16.80
2017-09-30T00:19:31.631Z,16.02
2017-09-30T00:22:00.891Z,16.25
2017-09-30T00:24:30.201Z,14.77
2017-09-30T00:26:59.484Z,17.33
2017-09-30T00:29:28.739Z,14.98
2017-09-30T00:31:58.028Z,15.65
2017-09-30T00:34:27.277Z,16.73
2017-09-30T00:36:56.536Z,17.05
2017-09-30T00:39:25.877Z,15.77
2017-09-30T00:41:55.192Z,17.77
2017-09-30T00:44:24.495Z,16.87
2017-09-30T00:46:53.755Z,17.62
2017-09-30T00:49:23.014Z,17.23
2017-09-30T00:51:52.383Z,15.85
2017-09-30T00:54:21.637Z,15.98
2017-09-30T00:56:50.900Z,17.10
2017-09-30T00:59:20.183Z,17.70
2017-09-30T01:01:49.439Z,15.60
2017-09-30T01:04:18.683Z,17.42
2017-09-30T01:06:48.095Z,18.05
2017-09-30T01:09:17.340Z,17.77
2017-09-30T01:11:46.579Z,15.63
2017-09-30T01:14:16.004Z,15.68
2017-09-30T01:16:45.245Z,16.95
2017-09-30T01:19:14.504Z,16.33
2017-09-30T01:21:43.771Z,16.55
2017-09-30T01:24:13.791Z,15.70
2017-09-30T01:26:43.973Z,16.58
2017-09-30T01:29:13.219Z,16.33
2017-09-30T01:31:42.474Z,15.80
2017-09-30T01:34:12.652Z,15.35
2017-09-30T01:36:41.907Z,15.98
2017-09-30T01:39:11.144Z,15.80
2017-09-30T01:41:40.823Z,16.70
2017-09-30T01:44:10.070Z,15.10
2017-09-30T01:46:39.314Z,17.20
2017-09-30T01:49:08.579Z,15.40
2017-09-30T01:51:37.834Z,15.75
2017-09-30T01:54:08.016Z,15.13
2017-09-30T01:56:37.261Z,14.80
2017-09-30T01:59:07.410Z,16.23
2017-09-30T02:01:36.814Z,16.35
2017-09-30T02:04:06.061Z,15.57
2017-09-30T02:06:35.307Z,16.75
2017-09-30T02:09:04.554Z,16.50
2017-09-30T02:11:33.803Z,14.70
2017-09-30T02:14:03.067Z,16.27
2017-09-30T02:16:33.090Z,16.92
2017-09-30T02:19:03.124Z,16.08
2017-09-30T02:21:33.154Z,14.95
2017-09-30T02:24:02.399Z,14.87
2017-09-30T02:26:31.660Z,16.70
2017-09-30T02:29:00.931Z,17.48
2017-09-30T02:31:30.954Z,15.85
2017-09-30T02:34:00.974Z,15.50
2017-09-30T02:36:31.006Z,16.00
2017-09-30T02:39:00.258Z,17.42
2017-09-30T02:41:29.501Z,16.73
2017-09-30T02:43:58.795Z,19.05
2017-09-30T02:46:28.044Z,15.55
2017-09-30T02:48:57.291Z,17.95
2017-09-30T02:51:27.463Z,17.85
2017-09-30T02:53:56.716Z,18.73
2017-09-30T02:56:25.960Z,18.37
2017-09-30T02:58:55.228Z,16.30
2017-09-30T03:01:24.495Z,17.87
2017-09-30T03:03:53.755Z,18.42
2017-09-30T03:06:23.364Z,18.85
2017-09-30T03:08:52.613Z,16.60
2017-09-30T03:11:22.011Z,18.48
2017-09-30T03:13:51.274Z,17.60
2017-09-30T03:16:20.546Z,18.15
2017-09-30T03:18:49.800Z,17.48
2017-09-30T03:21:19.110Z,17.85
2017-09-30T03:23:49.164Z,17.27
2017-09-30T03:26:18.465Z,21.48
2017-09-30T03:28:47.703Z,20.05
2017-09-30T03:31:16.967Z,20.30
2017-09-30T03:33:46.354Z,22.13
2017-09-30T03:36:16.567Z,20.37
2017-09-30T03:38:46.605Z,19.70
2017-09-30T03:41:15.854Z,20.45
2017-09-30T03:43:45.103Z,20.60
2017-09-30T03:46:14.370Z,21.17
2017-09-30T03:48:43.621Z,20.30
2017-09-30T03:51:12.861Z,22.73
2017-09-30T03:53:42.303Z,23.75
2017-09-30T03:56:11.559Z,24.42
2017-09-30T03:58:46.628Z,23.15
2017-09-30T04:01:16.635Z,22.52
2017-09-30T04:03:45.927Z,23.33
2017-09-30T04:06:15.409Z,23.30
2017-09-30T04:08:44.668Z,22.37
2017-09-30T04:11:13.939Z,23.27
2017-09-30T04:13:43.955Z,22.33
2017-09-30T04:16:13.214Z,23.30
2017-09-30T04:18:43.343Z,22.92
2017-09-30T04:21:12.592Z,25.05
2017-09-30T04:23:41.843Z,23.58
2017-09-30T04:26:11.259Z,22.40
2017-09-30T04:28:40.506Z,28.17
2017-09-30T04:31:09.750Z,27.60
2017-09-30T04:33:39.008Z,24.75
2017-09-30T04:36:08.260Z,23.83
2017-09-30T04:38:54.889Z,26.95
2017-09-30T04:41:29.524Z,26.05
2017-09-30T04:44:09.784Z,23.80
2017-09-30T04:46:55.176Z,25.12
2017-09-30T04:49:46.599Z,25.60
2017-09-30T04:55:23.139Z,24.02
2017-09-30T04:58:04.165Z,23.38
2017-09-30T05:00:48.317Z,23.33
2017-09-30T05:03:23.681Z,24.63
2017-09-30T05:05:54.030Z,23.70
2017-09-30T05:08:23.536Z,25.92
2017-09-30T05:10:53.155Z,26.58
2017-09-30T05:13:22.889Z,24.50
2017-09-30T05:15:52.365Z,25.37
2017-09-30T05:18:22.668Z,22.62
2017-09-30T05:20:52.087Z,23.17
2017-09-30T05:23:22.325Z,23.70
2017-09-30T05:25:52.609Z,22.67
2017-09-30T05:28:26.250Z,26.52
2017-09-30T05:30:55.797Z,25.42
2017-09-30T05:33:26.522Z,29.00
2017-09-30T05:35:56.481Z,26.65
2017-09-30T05:38:25.946Z,25.25
2017-09-30T05:40:55.399Z,23.48
2017-09-30T05:43:24.920Z,25.67
2017-09-30T05:45:54.670Z,28.45
2017-09-30T05:48:27.026Z,27.15
2017-09-30T05:50:56.597Z,25.95
2017-09-30T05:53:28.036Z,29.17
2017-09-30T05:55:57.303Z,27.20
2017-09-30T05:58:26.563Z,26.12
2017-09-30T06:00:55.831Z,28.02
2017-09-30T06:03:25.779Z,26.65
2017-09-30T06:05:55.031Z,24.35
2017-09-30T06:08:24.282Z,27.30
2017-09-30T06:10:55.360Z,27.58
2017-09-30T06:13:25.311Z,27.10
2017-09-30T06:15:54.582Z,26.42
2017-09-30T06:18:24.671Z,26.30
2017-09-30T06:20:53.929Z,25.77
2017-09-30T06:23:23.236Z,22.55
2017-09-30T06:25:52.515Z,24.80
2017-09-30T06:28:22.539Z,24.05
2017-09-30T06:30:51.815Z,25.70
2017-09-30T06:33:21.076Z,24.70
2017-09-30T06:35:50.327Z,26.67
2017-09-30T06:38:22.243Z,24.55
2017-09-30T06:40:51.501Z,25.00
2017-09-30T06:43:27.582Z,26.65
2017-09-30T06:45:56.938Z,25.17
2017-09-30T06:48:33.202Z,25.37
2017-09-30T06:51:04.710Z,24.05
2017-09-30T06:57:02.485Z,25.58
2017-09-30T06:59:52.900Z,24.05
2017-09-30T07:02:25.888Z,23.25
2017-09-30T07:04:57.649Z,25.15
2017-09-30T07:07:31.755Z,25.80
2017-09-30T07:10:06.284Z,25.23
2017-09-30T07:12:36.255Z,25.85
2017-09-30T07:15:05.574Z,25.45
2017-09-30T07:17:36.432Z,25.95
2017-09-30T07:20:05.727Z,26.08
2017-09-30T07:22:35.649Z,26.42
2017-09-30T07:25:04.958Z,25.02
2017-09-30T07:27:34.976Z,25.37
2017-09-30T07:30:05.048Z,24.23
2017-09-30T07:32:34.709Z,25.58
2017-09-30T07:35:20.965Z,24.83
2017-09-30T07:38:00.247Z,24.20
2017-09-30T07:40:30.330Z,23.02
2017-09-30T07:43:01.375Z,25.23
2017-09-30T07:45:33.149Z,25.55
2017-09-30T07:48:04.729Z,24.52
2017-09-30T07:50:34.943Z,24.77
2017-09-30T07:53:10.601Z,25.23
2017-09-30T07:55:43.830Z,23.60
2017-09-30T07:58:20.848Z,24.45
2017-09-30T08:01:04.379Z,23.33
2017-09-30T08:03:35.922Z,22.75
2017-09-30T08:06:08.716Z,22.95
2017-09-30T08:08:40.197Z,23.12
2017-09-30T08:11:14.186Z,21.08
2017-09-30T08:13:44.005Z,23.02
2017-09-30T08:16:15.853Z,23.55
2017-09-30T08:18:46.314Z,20.75
2017-09-30T08:21:18.152Z,21.75
2017-09-30T08:23:48.293Z,21.17
2017-09-30T08:26:20.632Z,20.73
2017-09-30T08:29:13.061Z,21.87
2017-09-30T08:35:10.242Z,20.70
2017-09-30T08:38:01.889Z,23.67
2017-09-30T08:40:33.036Z,22.27
2017-09-30T08:43:03.460Z,21.15
2017-09-30T08:45:34.278Z,21.45
2017-09-30T08:48:04.425Z,22.08
2017-09-30T08:50:33.803Z,21.05
2017-09-30T08:53:03.243Z,22.50
2017-09-30T08:55:32.752Z,20.40
2017-09-30T08:58:02.031Z,21.23
2017-09-30T09:00:31.304Z,20.62
2017-09-30T09:03:01.568Z,20.25
2017-09-30T09:05:30.896Z,20.08
2017-09-30T09:08:00.403Z,17.95
2017-09-30T09:10:30.656Z,20.27
2017-09-30T09:13:00.303Z,21.02
2017-09-30T09:15:29.907Z,18.10
2017-09-30T09:17:59.641Z,16.27
2017-09-30T09:20:30.324Z,17.00
2017-09-30T09:23:01.207Z,19.10
2017-09-30T09:25:34.153Z,19.75
2017-09-30T09:28:04.161Z,19.08
2017-09-30T09:30:33.430Z,17.40
2017-09-30T09:33:03.515Z,17.52
2017-09-30T09:35:32.776Z,16.87
2017-09-30T09:38:02.037Z,16.87
2017-09-30T09:40:31.339Z,14.87
2017-09-30T09:43:00.588Z,14.20
2017-09-30T09:45:29.855Z,13.32
2017-09-30T09:47:59.984Z,13.38
2017-09-30T09:50:30.047Z,14.90
2017-09-30T09:53:00.189Z,13.77
2017-09-30T09:55:29.448Z,12.18
2017-09-30T09:57:58.707Z,12.82
2017-09-30T10:00:28.764Z,14.85
2017-09-30T10:02:58.015Z,13.05
2017-09-30T10:05:27.268Z,12.80
2017-09-30T10:07:56.549Z,13.35
2017-09-30T10:10:25.799Z,13.45
2017-09-30T10:12:55.120Z,12.10
2017-09-30T10:15:24.394Z,12.27
2017-09-30T10:17:53.713Z,11.10
2017-09-30T10:20:23.010Z,10.40
2017-09-30T10:22:52.267Z,12.05
2017-09-30T10:25:21.516Z,12.63
2017-09-30T10:27:50.783Z,12.63
2017-09-30T10:30:20.058Z,11.15
2017-09-30T10:32:49.303Z,10.90
2017-09-30T10:35:18.618Z,11.18
2017-09-30T10:37:47.867Z,11.20
2017-09-30T10:40:17.115Z,11.82
2017-09-30T10:42:46.421Z,9.77
2017-09-30T10:45:15.735Z,10.18
2017-09-30T10:47:45.782Z,10.32
2017-09-30T10:50:15.072Z,10.27
2017-09-30T10:52:44.316Z,9.40
2017-09-30T10:55:13.556Z,7.87
2017-09-30T10:57:43.606Z,7.20
2017-09-30T11:00:12.855Z,7.80
2017-09-30T11:02:42.099Z,6.60
2017-09-30T11:05:11.375Z,7.20
2017-09-30T11:07:41.394Z,7.43
2017-09-30T11:10:11.435Z,6.80
2017-09-30T11:12:40.683Z,7.85
2017-09-30T11:15:09.939Z,7.15
2017-09-30T11:17:39.386Z,6.60
2017-09-30T11:20:08.649Z,7.28
2017-09-30T11:22:37.903Z,7.95
2017-09-30T11:25:07.173Z,7.50
2017-09-30T11:27:36.411Z,7.93
2017-09-30T11:30:06.451Z,8.80
2017-09-30T11:32:35.700Z,7.82
2017-09-30T11:35:04.951Z,7.62
2017-09-30T11:37:34.238Z,7.32
2017-09-30T11:40:04.263Z,8.00
2017-09-30T11:42:33.575Z,8.38
2017-09-30T11:45:02.843Z,7.25
2017-09-30T11:47:32.091Z,6.87
2017-09-30T11:50:01.389Z,7.85
2017-09-30T11:52:30.627Z,8.55
2017-09-30T11:54:59.914Z,6.80
2017-09-30T11:57:29.352Z,6.85
2017-09-30T11:59:58.599Z,7.60
2017-09-30T12:02:27.840Z,6.45
2017-09-30T12:04:57.103Z,7.53
2017-09-30T12:07:26.346Z,7.60
2017-09-30T12:09:55.675Z,7.95
2017-09-30T12:12:24.924Z,7.75
2017-09-30T12:14:54.171Z,7.50
2017-09-30T12:17:25.167Z,7.25
2017-09-30T12:19:55.227Z,7.60
2017-09-30T12:22:24.515Z,8.30
2017-09-30T12:24:54.576Z,7.57
2017-09-30T12:27:23.827Z,8.23
2017-09-30T12:29:53.137Z,7.37
2017-09-30T12:32:23.250Z,8.05
2017-09-30T12:34:52.528Z,10.00
2017-09-30T12:37:21.788Z,10.00
2017-09-30T12:39:51.068Z,8.82
2017-09-30T12:42:21.079Z,8.90
2017-09-30T12:44:51.281Z,10.98
2017-09-30T12:47:20.534Z,9.30
2017-09-30T12:49:49.793Z,8.90
2017-09-30T12:52:20.027Z,9.60
2017-09-30T12:54:50.044Z,9.27
2017-09-30T12:57:20.121Z,10.30
2017-09-30T12:59:50.054Z,10.15
2017-09-30T13:02:19.316Z,10.80
2017-09-30T13:04:48.619Z,9.90
2017-09-30T13:07:17.873Z,9.45
2017-09-30T13:09:47.915Z,11.02
2017-09-30T13:12:17.936Z,10.55
2017-09-30T13:14:47.271Z,11.90
2017-09-30T13:17:16.675Z,10.95
2017-09-30T13:19:45.923Z,11.20
2017-09-30T13:22:15.852Z,10.65
2017-09-30T13:24:45.109Z,9.38
2017-09-30T13:27:14.362Z,10.80
2017-09-30T13:29:43.811Z,9.90
2017-09-30T13:32:13.067Z,11.10
2017-09-30T13:34:42.334Z,10.40
2017-09-30T13:37:11.808Z,10.25
2017-09-30T13:39:41.044Z,9.98
2017-09-30T13:42:10.306Z,9.88
2017-09-30T13:44:39.600Z,10.60
2017-09-30T13:47:08.879Z,10.10
2017-09-30T13:49:38.126Z,9.95
2017-09-30T13:52:08.539Z,10.80
2017-09-30T13:54:37.970Z,9.77
2017-09-30T13:57:07.191Z,10.70
2017-09-30T13:59:36.475Z,11.27
2017-09-30T14:02:06.274Z,11.48
2017-09-30T14:04:36.351Z,9.70
2017-09-30T14:07:05.604Z,10.25
2017-09-30T14:09:35.816Z,11.77
2017-09-30T14:12:05.865Z,10.70
2017-09-30T14:14:35.156Z,10.93
2017-09-30T14:17:04.402Z,11.07
2017-09-30T14:19:33.655Z,11.27
2017-09-30T14:22:03.721Z,11.95
2017-09-30T14:24:32.998Z,11.32
2017-09-30T14:27:02.720Z,11.63
2017-09-30T14:29:32.027Z,11.80
2017-09-30T14:32:01.283Z,10.95
2017-09-30T14:34:30.673Z,10.95
2017-09-30T14:37:01.388Z,11.05
2017-09-30T14:39:30.647Z,10.63
2017-09-30T14:41:59.982Z,11.07
2017-09-30T14:44:29.230Z,12.40
2017-09-30T14:46:58.523Z,12.35
2017-09-30T14:49:28.602Z,11.12
2017-09-30T14:51:58.117Z,11.98
2017-09-30T14:54:27.356Z,10.90
2017-09-30T14:56:56.608Z,10.68
2017-09-30T14:59:25.892Z,11.63
2017-09-30T15:01:55.171Z,9.75
2017-09-30T15:04:24.464Z,9.65
2017-09-30T15:06:53.716Z,9.07
2017-09-30T15:09:23.724Z,7.90
2017-09-30T15:11:53.567Z,8.15
2017-09-30T15:14:23.812Z,6.68
2017-09-30T15:16:56.533Z,5.15
2017-09-30T15:19:25.807Z,5.40
2017-09-30T15:21:55.056Z,4.40
2017-09-30T15:24:24.299Z,4.60
2017-09-30T15:26:53.591Z,4.45
2017-09-30T15:29:23.808Z,5.22
2017-09-30T15:31:53.838Z,6.12
2017-09-30T15:34:23.123Z,5.53
2017-09-30T15:36:53.139Z,6.45
2017-09-30T15:39:23.205Z,5.80
2017-09-30T15:41:52.443Z,5.82
2017-09-30T15:44:21.682Z,5.70
2017-09-30T15:46:50.979Z,4.57
2017-09-30T15:49:20.231Z,4.20
2017-09-30T15:51:49.482Z,3.65
2017-09-30T15:54:18.903Z,3.80
2017-09-30T15:56:48.172Z,3.03
2017-09-30T15:59:18.530Z,3.17
2017-09-30T16:01:47.968Z,4.05
2017-09-30T16:04:17.363Z,2.70
2017-09-30T16:06:47.596Z,3.25
2017-09-30T16:09:17.983Z,3.40
2017-09-30T16:11:47.432Z,2.75
2017-09-30T16:14:16.772Z,3.28
2017-09-30T16:16:46.638Z,2.92
2017-09-30T16:19:16.021Z,2.85
2017-09-30T16:21:45.259Z,2.60
2017-09-30T16:24:18.480Z,2.58
2017-09-30T16:26:47.875Z,2.58
2017-09-30T16:29:17.458Z,3.08
2017-09-30T16:31:46.829Z,2.87
2017-09-30T16:34:16.284Z,3.83
2017-09-30T16:36:45.709Z,3.33
2017-09-30T16:39:14.983Z,3.30
2017-09-30T16:41:44.224Z,3.85
2017-09-30T16:44:13.470Z,3.80
2017-09-30T16:46:42.797Z,3.60
2017-09-30T16:49:12.799Z,3.55
2017-09-30T16:51:42.065Z,2.60
2017-09-30T16:54:11.320Z,3.05
2017-09-30T16:56:40.574Z,3.05
2017-09-30T16:59:09.959Z,2.65
2017-09-30T17:01:39.299Z,2.65
2017-09-30T17:04:08.603Z,3.00
2017-09-30T17:06:38.905Z,2.35
2017-09-30T17:09:08.379Z,2.70
2017-09-30T17:11:37.769Z,2.58
2017-09-30T17:14:07.358Z,2.42
2017-09-30T17:16:36.768Z,2.50
2017-09-30T17:19:06.148Z,2.33
2017-09-30T17:21:35.575Z,2.80
2017-09-30T17:24:05.686Z,2.45
2017-09-30T17:26:34.986Z,2.67
2017-09-30T17:29:05.184Z,2.22
2017-09-30T17:31:34.423Z,2.50
2017-09-30T17:34:03.965Z,2.83
2017-09-30T17:36:33.385Z,3.42
2017-09-30T17:39:02.725Z,2.33
2017-09-30T17:41:32.998Z,2.40
2017-09-30T17:44:02.432Z,3.33
2017-09-30T17:46:31.771Z,2.97
2017-09-30T17:49:01.364Z,2.45
2017-09-30T17:51:30.840Z,2.50
2017-09-30T17:54:00.207Z,1.95
2017-09-30T17:56:29.629Z,2.47
2017-09-30T17:58:58.900Z,2.67
2017-09-30T18:01:28.194Z,2.90
2017-09-30T18:03:57.528Z,2.78
2017-09-30T18:06:28.127Z,2.90
2017-09-30T18:08:57.373Z,2.58
2017-09-30T18:11:31.637Z,3.20
2017-09-30T18:14:01.676Z,2.25
2017-09-30T18:16:30.917Z,2.40
2017-09-30T18:19:00.321Z,2.37
2017-09-30T18:21:29.595Z,2.22
2017-09-30T18:23:58.830Z,2.70
2017-09-30T18:26:28.075Z,2.47
2017-09-30T18:28:57.671Z,2.47
2017-09-30T18:31:26.903Z,2.28
2017-09-30T18:33:56.182Z,2.40
2017-09-30T18:36:25.512Z,2.80
2017-09-30T18:38:54.912Z,2.40
2017-09-30T18:41:24.234Z,2.42
2017-09-30T18:43:53.484Z,2.30
2017-09-30T18:46:22.727Z,3.35
2017-09-30T18:48:51.972Z,2.50
2017-09-30T18:51:21.248Z,2.50
2017-09-30T18:53:50.511Z,2.50
2017-09-30T18:56:19.896Z,2.90
2017-09-30T18:58:50.891Z,2.50
2017-09-30T19:01:20.207Z,2.92
2017-09-30T19:03:49.501Z,2.67
2017-09-30T19:06:18.939Z,2.42
2017-09-30T19:08:50.027Z,2.90
2017-09-30T19:11:20.367Z,2.90
2017-09-30T19:13:50.102Z,2.58
2017-09-30T19:16:19.374Z,2.87
2017-09-30T19:18:49.412Z,2.78
2017-09-30T19:21:18.719Z,2.78
2017-09-30T19:23:48.723Z,2.47
2017-09-30T19:26:18.918Z,2.70
2017-09-30T19:28:48.152Z,2.90
2017-09-30T19:31:17.386Z,2.40
2017-09-30T19:33:47.437Z,2.47
2017-09-30T19:36:16.683Z,2.65
2017-09-30T19:38:45.932Z,2.08
2017-09-30T19:41:15.198Z,2.90
2017-09-30T19:43:44.453Z,2.65
2017-09-30T19:46:14.505Z,3.17
2017-09-30T19:48:43.748Z,3.20
2017-09-30T19:51:13.004Z,2.62
2017-09-30T19:53:43.175Z,2.78
2017-09-30T19:56:12.415Z,2.85
2017-09-30T19:58:41.657Z,2.30
2017-09-30T20:01:11.079Z,2.22
2017-09-30T20:03:40.332Z,3.50
2017-09-30T20:06:09.572Z,2.72
2017-09-30T20:08:38.859Z,2.70
2017-09-30T20:11:08.096Z,2.40
2017-09-30T20:13:38.135Z,3.45
2017-09-30T20:16:07.437Z,2.60
2017-09-30T20:18:37.661Z,2.42
2017-09-30T20:21:07.696Z,2.28
2017-09-30T20:23:37.731Z,2.65
2017-09-30T20:26:06.988Z,1.73
2017-09-30T20:28:36.287Z,1.85
2017-09-30T20:31:06.537Z,2.65
2017-09-30T20:33:35.873Z,2.53
2017-09-30T20:36:05.384Z,2.60
2017-09-30T20:38:34.626Z,2.50
2017-09-30T20:41:03.872Z,3.22
2017-09-30T20:43:33.123Z,2.75
2017-09-30T20:46:02.387Z,2.28
2017-09-30T20:48:31.666Z,2.40
2017-09-30T20:51:00.947Z,2.62
2017-09-30T20:53:30.195Z,2.70
2017-09-30T20:55:59.476Z,3.10
2017-09-30T20:58:28.768Z,3.20
2017-09-30T21:00:58.014Z,2.80
2017-09-30T21:03:28.060Z,3.45
2017-09-30T21:05:57.297Z,3.55
2017-09-30T21:08:26.608Z,3.35
2017-09-30T21:10:55.960Z,3.47
2017-09-30T21:13:25.516Z,3.53
2017-09-30T21:15:54.772Z,4.12
2017-09-30T21:18:24.055Z,3.83
2017-09-30T21:20:53.295Z,4.15
2017-09-30T21:23:22.558Z,4.82
2017-09-30T21:25:51.809Z,4.22
2017-09-30T21:28:21.441Z,4.57
2017-09-30T21:30:50.950Z,4.40
2017-09-30T21:33:20.279Z,4.82
2017-09-30T21:35:49.600Z,4.20
2017-09-30T21:38:20.687Z,5.40
2017-09-30T21:40:49.939Z,5.15
2017-09-30T21:43:19.755Z,4.60
2017-09-30T21:45:49.314Z,5.65
2017-09-30T21:48:18.629Z,4.80
2017-09-30T21:50:48.763Z,5.12
2017-09-30T21:53:18.864Z,4.80
2017-09-30T21:55:49.752Z,4.80
2017-09-30T21:58:18.992Z,3.92
2017-09-30T22:00:49.031Z,5.50
2017-09-30T22:03:18.308Z,4.60
2017-09-30T22:05:48.880Z,5.28
2017-09-30T22:08:18.252Z,4.28
2017-09-30T22:10:47.609Z,4.47
2017-09-30T22:13:17.607Z,4.68
2017-09-30T22:15:46.865Z,4.37
2017-09-30T22:18:16.915Z,4.82
2017-09-30T22:20:46.175Z,4.00
2017-09-30T22:23:15.440Z,3.65
2017-09-30T22:25:44.716Z,3.80
2017-09-30T22:28:13.997Z,3.60
2017-09-30T22:30:44.088Z,3.92
2017-09-30T22:33:13.355Z,4.18
2017-09-30T22:35:42.642Z,4.50
2017-09-30T22:38:11.899Z,4.10
2017-09-30T22:40:41.130Z,4.03
2017-09-30T22:43:10.370Z,4.20
2017-09-30T22:45:39.639Z,3.95
2017-09-30T22:48:08.879Z,4.12
2017-09-30T22:50:38.163Z,4.53
2017-09-30T22:53:07.402Z,4.85
2017-09-30T22:55:36.644Z,5.00
2017-09-30T22:58:21.123Z,4.37
2017-09-30T23:00:53.192Z,5.57
2017-09-30T23:03:22.487Z,4.82
2017-09-30T23:05:51.813Z,4.55
2017-09-30T23:08:21.887Z,4.72
2017-09-30T23:10:51.130Z,4.82
2017-09-30T23:13:23.171Z,4.65
2017-09-30T23:15:52.393Z,4.82
2017-09-30T23:18:22.348Z,4.72
2017-09-30T23:20:51.635Z,5.30
2017-09-30T23:23:21.651Z,5.00
2017-09-30T23:25:50.973Z,4.65
2017-09-30T23:28:21.860Z,4.32
2017-09-30T23:30:51.895Z,5.10
2017-09-30T23:33:21.322Z,4.00
2017-09-30T23:35:52.188Z,3.62
2017-09-30T23:38:22.464Z,4.35
2017-09-30T23:40:51.858Z,4.40
2017-09-30T23:43:21.092Z,3.40
2017-09-30T23:45:50.360Z,3.90
2017-09-30T23:48:19.631Z,4.50
2017-09-30T23:50:48.932Z,3.65
2017-09-30T23:53:18.173Z,3.83
2017-09-30T23:55:48.251Z,3.28
2017-09-30T23:58:17.500Z,4.00
